Time;durP1;ratioP1;P1;durP2;ratioP2;P2;SDS_P1;SDS_P2;PMS_P1;PMS_P2;Temp;Humidity;BMP_temperature;BMP_pressure;BME280_temperature;BME280_humidity;BME280_pressure;Samples;Min_cycle;Max_cycle;Signal;HPM_P1;HPM_P2
2021/12/20 00:00:08;;;;;;;7.90;4.50;;;;;;;5.74;63.25;99250.08;116858;1188;22822;-59
2021/12/20 00:02:39;;;;;;;6.60;4.20;;;;;;;5.68;63.14;99256.05;116799;1185;21874;-59
2021/12/20 00:05:08;;;;;;;5.80;3.90;;;;;;;5.62;63.33;99258.03;116873;1185;21860;-56
2021/12/20 00:07:36;;;;;;;7.00;3.80;;;;;;;5.57;63.22;99250.77;116799;1187;21872;-58
2021/12/20 00:10:24;;;;;;;8.20;4.10;;;;;;;5.49;63.32;99253.64;116831;1189;22657;-57
2021/12/20 00:12:52;;;;;;;6.70;4.10;;;;;;;5.43;63.06;99251.95;116787;1186;21917;-57
2021/12/20 00:15:21;;;;;;;6.20;3.70;;;;;;;5.36;62.93;99257.39;116923;1187;22004;-59
2021/12/20 00:18:08;;;;;;;6.40;3.70;;;;;;;5.29;63.27;99256.77;116874;1190;23667;-57
2021/12/20 00:20:37;;;;;;;7.40;4.10;;;;;;;5.20;63.24;99261.19;117364;1182;23462;-57
2021/12/20 00:23:05;;;;;;;5.90;3.90;;;;;;;5.11;62.85;99259.35;117366;1184;21856;-56
2021/12/20 00:25:33;;;;;;;6.30;4.10;;;;;;;5.03;62.93;99263.06;117424;1183;21971;-56
2021/12/20 00:28:02;;;;;;;9.70;4.60;;;;;;;4.96;63.08;99260.34;117461;1184;21888;-60
2021/12/20 00:30:30;;;;;;;6.60;4.30;;;;;;;4.90;63.01;99263.85;117321;1184;23436;-56
2021/12/20 00:32:58;;;;;;;6.30;3.90;;;;;;;4.83;63.46;99265.14;117300;1186;22853;-59
2021/12/20 00:35:27;;;;;;;6.20;3.60;;;;;;;4.77;63.15;99262.21;117344;1185;21866;-58
2021/12/20 00:40:42;;;;;;;6.10;3.70;;;;;;;4.68;63.16;99256.70;117306;1184;22626;-58
2021/12/20 00:43:10;;;;;;;6.20;4.10;;;;;;;4.65;63.25;99251.69;117283;1186;21864;-56
2021/12/20 00:45:38;;;;;;;7.70;4.00;;;;;;;4.61;63.22;99245.97;117379;1184;21857;-58
2021/12/20 00:48:08;;;;;;;7.00;4.20;;;;;;;4.60;63.22;99244.94;117390;1183;23507;-59
2021/12/20 00:50:39;;;;;;;5.50;3.50;;;;;;;4.58;63.21;99248.42;117335;1184;24133;-56
2021/12/20 00:53:08;;;;;;;6.10;3.70;;;;;;;4.56;63.12;99241.66;117362;1186;22687;-56
2021/12/20 00:55:36;;;;;;;5.90;3.80;;;;;;;4.51;63.29;99236.13;117326;1181;21858;-58
2021/12/20 00:58:05;;;;;;;5.60;3.60;;;;;;;4.51;63.14;99233.70;117394;1186;23438;-59
2021/12/20 01:00:35;;;;;;;6.20;3.60;;;;;;;4.47;63.12;99230.94;117348;1184;21856;-59
2021/12/20 01:03:04;;;;;;;6.80;4.00;;;;;;;4.42;63.05;99231.13;117335;1186;21853;-56
2021/12/20 01:05:34;;;;;;;6.90;3.70;;;;;;;4.40;63.22;99230.46;117337;1186;22913;-56
2021/12/20 01:08:04;;;;;;;9.80;4.90;;;;;;;4.40;63.38;99225.09;117330;1181;23462;-56
2021/12/20 01:10:38;;;;;;;6.00;3.60;;;;;;;4.39;63.29;99225.09;117384;1184;21897;-59
2021/12/20 01:13:06;;;;;;;7.40;4.70;;;;;;;4.41;63.42;99223.16;117355;1184;21855;-56
2021/12/20 01:15:37;;;;;;;6.20;4.10;;;;;;;4.43;63.17;99221.92;117377;1183;24000;-56
2021/12/20 01:18:05;;;;;;;;;;;;;;;4.48;63.33;99231.45;117317;1186;22915;-56
2021/12/20 01:20:35;;;;;;;6.40;3.70;;;;;;;4.50;63.56;99233.02;117372;1185;23121;-59
2021/12/20 01:23:04;;;;;;;6.10;4.00;;;;;;;4.51;63.35;99229.35;117338;1184;21862;-59
2021/12/20 01:25:32;;;;;;;5.70;4.00;;;;;;;4.54;63.52;99228.30;117388;1180;21879;-56
2021/12/20 01:28:01;;;;;;;7.40;4.10;;;;;;;4.58;63.54;99226.89;117313;1185;21871;-59
2021/12/20 01:30:29;;;;;;;5.60;4.10;;;;;;;4.60;63.46;99225.83;117419;1185;21845;-59
2021/12/20 01:32:58;;;;;;;5.60;3.90;;;;;;;4.64;63.65;99221.96;117345;1184;21858;-56
2021/12/20 01:35:28;;;;;;;7.20;4.10;;;;;;;4.68;63.47;99219.67;117308;1184;23436;-59
2021/12/20 01:37:56;;;;;;;6.90;4.20;;;;;;;4.75;63.72;99220.68;117312;1186;21901;-56
2021/12/20 01:40:24;;;;;;;6.80;4.70;;;;;;;4.82;63.49;99223.06;117408;1185;21860;-59
2021/12/20 01:42:55;;;;;;;5.80;3.90;;;;;;;4.93;63.95;99222.63;117296;1185;23471;-59
2021/12/20 01:45:26;;;;;;;5.90;3.60;;;;;;;5.03;63.65;99221.16;117322;1184;21988;-59
2021/12/20 01:48:05;;;;;;;7.10;4.30;;;;;;;5.12;63.55;99221.79;117373;1184;23276;-59
2021/12/20 01:53:12;;;;;;;5.80;3.90;;;;;;;5.24;63.57;99228.11;117364;1183;21867;-59
2021/12/20 01:55:40;;;;;;;6.60;4.50;;;;;;;5.25;63.34;99219.93;117353;1186;21894;-56
2021/12/20 01:58:08;;;;;;;6.70;4.20;;;;;;;5.26;63.49;99218.89;117374;1185;21858;-56
2021/12/20 02:00:37;;;;;;;6.00;3.70;;;;;;;5.27;63.45;99216.27;117478;1185;21899;-57
2021/12/20 02:03:08;;;;;;;6.10;3.70;;;;;;;5.31;63.46;99217.09;117337;1182;21859;-59
2021/12/20 02:08:22;;;;;;;6.50;4.00;;;;;;;5.33;63.31;99222.29;117358;1185;23548;-56
2021/12/20 02:10:53;;;;;;;5.60;3.70;;;;;;;5.29;63.71;99219.55;117328;1186;21974;-57
2021/12/20 02:13:24;;;;;;;5.40;3.70;;;;;;;5.29;63.42;99222.69;117320;1186;22957;-56
2021/12/20 02:15:52;;;;;;;6.40;3.50;;;;;;;5.29;63.43;99222.86;117385;1184;21983;-56
2021/12/20 02:18:21;;;;;;;6.50;4.00;;;;;;;5.29;63.48;99226.33;117328;1189;21908;-59
2021/12/20 02:20:58;;;;;;;7.40;4.50;;;;;;;5.31;63.87;99224.56;117432;1185;21858;-59
2021/12/20 02:23:26;;;;;;;6.40;4.30;;;;;;;5.35;63.59;99225.75;117375;1185;21856;-56
2021/12/20 02:25:55;;;;;;;7.30;4.30;;;;;;;5.39;63.63;99217.71;117433;1181;22925;-56
2021/12/20 02:28:24;;;;;;;7.40;4.30;;;;;;;5.43;63.97;99214.38;117398;1182;23463;-57
2021/12/20 02:38:59;;;;;;;7.50;4.80;;;;;;;5.49;63.74;99220.92;117354;1184;21905;-58
2021/12/20 02:41:31;;;;;;;6.50;4.30;;;;;;;5.49;63.42;99222.84;117311;1186;21885;-56
2021/12/20 02:44:05;;;;;;;7.10;4.80;;;;;;;5.49;63.78;99228.57;117319;1184;23541;-59
2021/12/20 02:49:06;;;;;;;7.00;4.30;;;;;;;5.51;63.77;99230.63;117321;1183;21862;-56
2021/12/20 02:51:35;;;;;;;7.30;4.90;;;;;;;5.59;63.57;99231.42;117311;1186;21859;-59
2021/12/20 02:54:05;;;;;;;7.70;5.00;;;;;;;5.62;63.56;99230.70;117313;1185;21892;-56
2021/12/20 02:56:34;;;;;;;6.10;4.10;;;;;;;5.63;63.61;99235.21;117294;1187;23500;-57
2021/12/20 02:59:02;;;;;;;6.90;4.80;;;;;;;5.59;63.43;99238.73;117278;1183;21865;-56
2021/12/20 03:01:31;;;;;;;8.70;5.60;;;;;;;5.61;63.59;99243.60;117173;1184;22933;-57
2021/12/20 03:04:00;;;;;;;6.90;4.60;;;;;;;5.62;63.39;99241.48;117322;1186;22285;-59
2021/12/20 03:06:42;;;;;;;7.00;4.40;;;;;;;5.62;63.71;99239.92;117347;1185;22850;-58
2021/12/20 03:09:15;;;;;;;6.90;4.70;;;;;;;5.64;63.75;99244.09;117368;1182;21858;-57
2021/12/20 03:11:45;;;;;;;7.30;4.90;;;;;;;5.65;63.51;99244.25;117407;1184;22051;-59
2021/12/20 03:14:25;;;;;;;6.80;4.40;;;;;;;5.65;63.57;99241.10;117348;1186;21967;-56
2021/12/20 03:16:54;;;;;;;7.50;4.90;;;;;;;5.64;63.42;99239.73;117131;1187;21875;-56
2021/12/20 03:19:22;;;;;;;8.40;5.30;;;;;;;5.62;63.54;99243.40;117316;1185;22633;-57
2021/12/20 03:21:51;;;;;;;7.40;4.90;;;;;;;5.61;63.63;99242.55;117342;1186;23439;-59
2021/12/20 03:24:36;;;;;;;7.80;4.80;;;;;;;5.62;63.60;99247.06;117301;1181;21858;-56
2021/12/20 03:27:05;;;;;;;7.90;5.10;;;;;;;5.61;63.50;99244.98;117267;1184;21866;-57
2021/12/20 03:29:33;;;;;;;7.10;4.50;;;;;;;5.57;63.37;99247.27;117062;1187;21906;-60
2021/12/20 03:32:02;;;;;;;6.40;4.60;;;;;;;5.56;63.65;99247.28;117364;1185;21861;-59
2021/12/20 03:34:31;;;;;;;5.50;4.10;;;;;;;5.52;63.31;99242.81;117196;1187;22906;-56
2021/12/20 03:36:59;;;;;;;3.80;2.30;;;;;;;5.52;63.44;99246.63;117438;1185;21931;-60
2021/12/20 03:39:27;;;;;;;3.40;2.20;;;;;;;5.54;63.15;99246.95;117334;1185;21906;-60
2021/12/20 03:41:57;;;;;;;2.40;1.50;;;;;;;5.48;63.02;99248.41;117285;1184;22044;-59
2021/12/20 03:44:26;;;;;;;2.30;1.20;;;;;;;5.42;63.20;99250.90;117345;1186;21873;-56
2021/12/20 03:46:55;;;;;;;3.40;1.40;;;;;;;5.39;63.08;99253.71;117162;1183;21857;-60
2021/12/20 03:49:23;;;;;;;2.70;1.20;;;;;;;5.33;62.95;99249.77;117400;1186;21865;-56
2021/12/20 03:51:52;;;;;;;1.50;0.90;;;;;;;5.30;63.03;99251.20;117304;1182;23448;-60
2021/12/20 03:54:20;;;;;;;2.00;1.10;;;;;;;5.25;63.05;99254.54;117373;1185;21872;-57
2021/12/20 03:56:48;;;;;;;4.40;1.20;;;;;;;5.20;62.98;99257.38;117284;1186;21907;-56
2021/12/20 03:59:17;;;;;;;1.00;0.80;;;;;;;5.11;63.06;99255.52;117351;1185;23438;-57
2021/12/20 04:01:45;;;;;;;1.30;0.90;;;;;;;5.08;63.18;99256.24;117357;1184;23452;-56
2021/12/20 04:04:13;;;;;;;1.50;1.00;;;;;;;5.05;63.04;99249.14;117307;1185;21926;-59
2021/12/20 04:06:41;;;;;;;1.70;0.90;;;;;;;5.04;63.09;99245.85;117330;1186;21865;-60
2021/12/20 04:09:09;;;;;;;1.70;1.00;;;;;;;5.00;63.04;99256.65;117320;1182;23431;-60
2021/12/20 04:11:39;;;;;;;1.80;0.80;;;;;;;4.98;63.16;99259.27;117359;1185;24132;-56
2021/12/20 04:14:07;;;;;;;1.60;1.00;;;;;;;4.96;63.01;99264.15;117362;1183;22833;-56
2021/12/20 04:16:38;;;;;;;1.50;1.00;;;;;;;4.93;63.34;99268.88;117354;1184;23538;-59
2021/12/20 04:19:06;;;;;;;1.10;0.80;;;;;;;4.92;63.23;99272.70;117352;1182;21858;-60
2021/12/20 04:21:34;;;;;;;2.10;1.00;;;;;;;4.90;63.11;99276.36;117329;1186;21985;-60
2021/12/20 04:24:03;;;;;;;2.80;0.80;;;;;;;4.89;63.18;99279.86;117296;1182;21845;-61
2021/12/20 04:26:32;;;;;;;1.00;0.60;;;;;;;4.89;63.03;99283.15;117393;1185;23448;-56
2021/12/20 04:29:00;;;;;;;1.10;0.60;;;;;;;4.86;63.17;99284.38;117284;1184;22814;-61
2021/12/20 04:31:28;;;;;;;1.30;0.60;;;;;;;4.81;63.12;99285.13;117330;1182;22606;-60
2021/12/20 04:33:57;;;;;;;0.70;0.60;;;;;;;4.77;63.14;99282.55;117305;1184;21866;-56
2021/12/20 04:36:25;;;;;;;1.10;0.60;;;;;;;4.70;63.22;99281.19;117362;1185;21858;-61
2021/12/20 04:38:53;;;;;;;0.90;0.40;;;;;;;4.63;63.22;99283.50;117293;1186;23481;-56
2021/12/20 04:41:22;;;;;;;2.70;0.80;;;;;;;4.59;63.05;99284.04;117408;1185;21910;-56
2021/12/20 04:43:50;;;;;;;1.20;0.70;;;;;;;4.56;62.95;99287.88;117382;1184;21862;-61
2021/12/20 04:46:19;;;;;;;3.10;1.10;;;;;;;4.51;62.92;99292.77;117408;1185;21867;-57
2021/12/20 04:48:47;;;;;;;1.50;1.00;;;;;;;4.44;63.00;99297.13;117465;1186;23458;-61
2021/12/20 04:51:15;;;;;;;2.10;1.10;;;;;;;4.39;62.87;99294.39;117350;1185;21864;-56
2021/12/20 04:53:44;;;;;;;2.30;1.40;;;;;;;4.34;63.04;99285.38;117310;1185;21892;-56
2021/12/20 04:56:13;;;;;;;1.70;1.00;;;;;;;4.31;63.02;99283.99;117331;1186;22991;-60
2021/12/20 04:58:42;;;;;;;2.20;1.60;;;;;;;4.27;62.94;99294.43;117347;1180;22164;-60
2021/12/20 05:01:10;;;;;;;2.30;1.30;;;;;;;4.23;63.02;99297.92;117280;1185;21845;-57
2021/12/20 05:03:38;;;;;;;1.80;1.10;;;;;;;4.23;62.99;99302.25;117327;1186;21856;-61
2021/12/20 05:06:07;;;;;;;1.90;1.10;;;;;;;4.23;63.07;99301.56;117363;1185;21853;-60
2021/12/20 05:08:45;;;;;;;2.00;1.10;;;;;;;4.26;63.14;99304.33;117381;1176;23433;-56
2021/12/20 05:11:15;;;;;;;3.40;1.00;;;;;;;4.28;63.17;99313.35;117353;1184;22811;-62
2021/12/20 05:13:44;;;;;;;2.00;1.10;;;;;;;4.30;63.38;99319.95;117379;1185;21876;-56
2021/12/20 05:16:12;;;;;;;1.90;1.00;;;;;;;4.33;63.43;99319.95;117335;1185;21858;-61
2021/12/20 05:18:40;;;;;;;2.60;1.10;;;;;;;4.37;63.31;99322.36;117369;1185;21855;-57
2021/12/20 05:21:09;;;;;;;4.60;0.90;;;;;;;4.41;63.07;99324.44;117358;1186;23536;-59
2021/12/20 05:23:38;;;;;;;1.90;0.90;;;;;;;4.41;63.11;99324.25;117380;1186;21858;-58
2021/12/20 05:26:06;;;;;;;2.90;1.20;;;;;;;4.42;63.20;99330.66;117369;1185;21861;-60
2021/12/20 05:28:34;;;;;;;2.80;1.50;;;;;;;4.40;62.98;99336.25;117340;1184;21848;-61
2021/12/20 05:31:03;;;;;;;5.40;1.90;;;;;;;4.38;63.23;99325.30;117352;1185;21889;-60
2021/12/20 05:33:34;;;;;;;5.10;2.70;;;;;;;4.37;63.10;99321.67;117357;1186;22930;-61
2021/12/20 05:36:03;;;;;;;5.80;3.20;;;;;;;4.37;63.10;99327.05;117384;1186;21862;-61
2021/12/20 05:38:47;;;;;;;5.50;2.90;;;;;;;4.37;62.91;99336.78;117294;1182;22617;-61
2021/12/20 05:41:16;;;;;;;4.00;2.20;;;;;;;4.36;62.97;99340.59;117332;1186;21995;-60
2021/12/20 05:43:53;;;;;;;4.40;2.90;;;;;;;4.35;63.30;99342.86;117107;1185;21852;-60
2021/12/20 05:46:22;;;;;;;7.40;3.60;;;;;;;4.34;63.12;99348.95;117251;1186;21864;-61
2021/12/20 05:48:50;;;;;;;4.60;2.50;;;;;;;4.34;63.09;99352.59;117196;1185;23629;-60
2021/12/20 05:51:18;;;;;;;4.90;2.40;;;;;;;4.35;63.53;99354.14;117206;1182;23584;-60
2021/12/20 05:53:47;;;;;;;6.00;3.20;;;;;;;4.39;63.22;99353.96;117356;1186;23124;-61
2021/12/20 05:56:15;;;;;;;5.30;3.10;;;;;;;4.40;63.24;99349.61;117255;1186;21859;-61
2021/12/20 05:58:43;;;;;;;5.20;2.50;;;;;;;4.43;63.29;99357.23;117227;1182;21864;-61
2021/12/20 06:01:11;;;;;;;7.40;4.00;;;;;;;4.42;63.38;99369.05;117343;1185;22706;-61
2021/12/20 06:03:40;;;;;;;5.30;2.50;;;;;;;4.45;63.12;99375.30;117367;1185;23434;-60
2021/12/20 06:06:08;;;;;;;2.90;1.80;;;;;;;4.46;62.93;99377.38;117351;1186;21924;-60
2021/12/20 06:08:37;;;;;;;4.00;1.70;;;;;;;4.45;63.20;99384.85;117305;1184;21858;-61
2021/12/20 06:11:05;;;;;;;5.00;1.90;;;;;;;4.46;63.06;99379.46;117262;1184;23441;-61
2021/12/20 06:13:34;;;;;;;2.90;1.40;;;;;;;4.47;63.01;99379.29;117294;1184;24158;-61
2021/12/20 06:16:03;;;;;;;2.80;1.20;;;;;;;4.46;63.15;99384.67;117081;1187;21966;-61
2021/12/20 06:18:31;;;;;;;4.30;1.90;;;;;;;4.44;63.10;99393.71;117355;1186;23442;-60
2021/12/20 06:21:00;;;;;;;3.60;1.70;;;;;;;4.43;62.95;99402.92;117365;1182;23440;-61
2021/12/20 06:23:29;;;;;;;3.10;1.50;;;;;;;4.39;63.03;99407.29;117282;1185;23484;-61
2021/12/20 06:25:57;;;;;;;4.80;1.90;;;;;;;4.36;63.28;99409.03;117283;1186;21860;-61
2021/12/20 06:28:26;;;;;;;3.30;1.40;;;;;;;4.35;63.04;99407.98;117326;1186;24152;-61
2021/12/20 06:30:55;;;;;;;3.90;1.70;;;;;;;4.32;63.01;99416.16;117312;1184;21859;-61
2021/12/20 06:33:23;;;;;;;6.50;3.00;;;;;;;4.28;63.01;99418.61;117323;1186;22900;-60
2021/12/20 06:35:52;;;;;;;8.70;3.70;;;;;;;4.27;63.37;99416.86;117307;1184;21851;-61
2021/12/20 06:38:21;;;;;;;6.80;2.80;;;;;;;4.26;63.22;99413.04;117292;1186;21868;-61
2021/12/20 06:40:50;;;;;;;8.30;3.20;;;;;;;4.24;63.11;99414.95;117309;1186;24139;-61
2021/12/20 06:43:19;;;;;;;6.80;2.80;;;;;;;4.21;63.17;99428.68;117305;1184;24159;-61
2021/12/20 06:45:48;;;;;;;7.10;2.60;;;;;;;4.19;63.19;99433.21;117288;1186;23563;-60
2021/12/20 06:48:16;;;;;;;5.90;2.40;;;;;;;4.17;63.10;99436.86;117301;1184;23440;-60
2021/12/20 06:50:44;;;;;;;5.10;2.40;;;;;;;4.15;63.29;99441.38;117283;1186;21859;-60
2021/12/20 06:53:13;;;;;;;6.20;2.40;;;;;;;4.13;63.17;99441.03;117535;1186;23471;-61
2021/12/20 06:55:41;;;;;;;5.90;1.90;;;;;;;4.11;62.95;99448.32;117312;1185;21860;-60
2021/12/20 06:58:09;;;;;;;5.60;2.40;;;;;;;4.10;63.05;99447.80;117394;1185;21845;-61
2021/12/20 07:00:38;;;;;;;6.90;2.60;;;;;;;4.07;62.95;99449.36;117436;1185;21864;-61
2021/12/20 07:03:07;;;;;;;5.90;2.20;;;;;;;4.07;62.98;99449.02;117296;1184;22265;-58
2021/12/20 07:05:36;;;;;;;9.20;2.70;;;;;;;4.01;63.05;99457.52;117369;1188;21859;-60
2021/12/20 07:08:04;;;;;;;7.40;2.30;;;;;;;3.97;63.29;99464.65;117328;1186;21852;-57
2021/12/20 07:10:33;;;;;;;8.70;3.00;;;;;;;3.98;63.05;99471.23;117380;1185;22621;-61
2021/12/20 07:13:07;;;;;;;6.10;2.40;;;;;;;3.95;63.30;99471.59;117399;1186;22658;-61
2021/12/20 07:15:36;;;;;;;5.20;2.10;;;;;;;3.93;63.29;99474.02;117366;1186;22912;-61
2021/12/20 07:18:05;;;;;;;4.90;2.10;;;;;;;3.91;63.26;99479.58;117337;1185;21860;-61
2021/12/20 07:20:33;;;;;;;4.50;1.40;;;;;;;3.94;63.28;99484.27;117342;1180;22682;-57
2021/12/20 07:23:02;;;;;;;7.00;2.90;;;;;;;3.98;63.43;99483.39;117310;1185;22909;-58
2021/12/20 07:25:29;;;;;;;4.90;2.40;;;;;;;4.04;63.58;99483.91;117319;1184;23099;-57
2021/12/20 07:27:58;;;;;;;6.40;2.40;;;;;;;4.15;63.59;99487.91;117331;1180;21848;-61
2021/12/20 07:30:27;;;;;;;3.70;2.00;;;;;;;4.27;63.62;99489.29;117330;1185;21859;-61
2021/12/20 07:32:56;;;;;;;4.70;1.90;;;;;;;4.39;63.76;99483.72;117328;1184;24316;-61
2021/12/20 07:35:26;;;;;;;6.20;2.10;;;;;;;4.52;63.91;99487.52;117395;1187;21854;-57
2021/12/20 07:37:57;;;;;;;5.10;2.20;;;;;;;4.65;63.82;99489.05;117367;1185;21863;-61
2021/12/20 07:40:26;;;;;;;4.90;2.40;;;;;;;4.78;63.78;99489.55;117294;1186;21862;-60
2021/12/20 07:42:54;;;;;;;5.50;2.50;;;;;;;4.90;63.82;99486.72;117363;1185;21859;-57
2021/12/20 07:45:23;;;;;;;4.20;1.80;;;;;;;5.00;63.73;99486.68;117399;1185;23551;-57
2021/12/20 07:48:08;;;;;;;5.50;1.70;;;;;;;5.08;63.69;99486.30;117352;1179;21911;-60
2021/12/20 07:50:37;;;;;;;6.00;2.60;;;;;;;5.17;63.65;99488.52;117347;1185;23541;-61
2021/12/20 07:53:05;;;;;;;6.80;2.00;;;;;;;5.23;63.88;99489.88;117419;1186;23588;-60
2021/12/20 07:55:33;;;;;;;4.80;2.10;;;;;;;5.30;63.67;99488.98;117352;1183;21971;-58
2021/12/20 07:58:03;;;;;;;6.50;3.00;;;;;;;5.37;63.72;99486.34;117314;1186;21862;-60
2021/12/20 08:00:31;;;;;;;6.50;2.50;;;;;;;5.44;63.90;99491.88;117351;1184;21855;-58
2021/12/20 08:03:17;;;;;;;5.60;2.00;;;;;;;5.52;63.62;99494.26;117317;1186;23616;-58
2021/12/20 08:05:46;;;;;;;4.90;2.00;;;;;;;5.59;64.00;99495.08;117302;1184;21857;-59
2021/12/20 08:08:15;;;;;;;2.40;1.30;;;;;;;5.65;63.93;99500.11;117252;1181;21858;-58
2021/12/20 08:11:03;;;;;;;3.00;0.80;;;;;;;5.73;64.04;99496.92;117163;1187;21869;-60
2021/12/20 08:13:32;;;;;;;4.10;1.20;;;;;;;5.79;64.09;99494.26;117218;1185;21859;-61
2021/12/20 08:16:00;;;;;;;4.30;0.80;;;;;;;5.86;63.72;99494.38;117342;1184;22647;-61
2021/12/20 08:18:36;;;;;;;2.60;0.70;;;;;;;5.92;63.86;99496.95;117297;1189;21867;-60
2021/12/20 08:21:06;;;;;;;2.70;0.80;;;;;;;6.02;64.01;99498.64;117334;1186;21857;-58
2021/12/20 08:23:35;;;;;;;3.30;0.90;;;;;;;6.11;63.92;99500.50;117346;1185;21851;-59
2021/12/20 08:26:04;;;;;;;2.20;1.00;;;;;;;6.17;63.83;99498.54;117318;1181;21858;-59
2021/12/20 08:28:35;;;;;;;3.10;1.60;;;;;;;6.23;63.59;99492.55;117351;1185;23448;-61
2021/12/20 08:31:05;;;;;;;2.80;1.30;;;;;;;6.28;63.64;99501.06;117378;1186;21876;-60
2021/12/20 08:33:33;;;;;;;4.60;1.60;;;;;;;6.32;63.66;99497.70;117341;1185;21907;-59
2021/12/20 08:36:09;;;;;;;3.50;1.00;;;;;;;6.36;63.57;99496.45;117330;1186;21909;-60
2021/12/20 08:38:46;;;;;;;3.10;1.00;;;;;;;6.44;63.60;99500.73;117296;1185;22006;-59
2021/12/20 08:41:14;;;;;;;5.10;1.90;;;;;;;6.56;63.98;99497.48;117374;1185;21912;-60
2021/12/20 08:44:00;;;;;;;5.80;1.30;;;;;;;6.71;64.07;99497.50;117314;1176;24178;-59
2021/12/20 08:46:31;;;;;;;5.50;1.70;;;;;;;6.82;64.17;99499.13;117282;1185;22628;-61
2021/12/20 08:48:59;;;;;;;3.40;1.40;;;;;;;6.89;64.17;99499.23;117433;1184;22970;-60
2021/12/20 08:51:28;;;;;;;3.20;1.30;;;;;;;6.92;63.96;99494.65;117414;1186;21856;-60
2021/12/20 08:53:56;;;;;;;3.70;1.20;;;;;;;6.91;63.82;99497.63;117341;1186;23516;-60
2021/12/20 08:56:35;;;;;;;3.00;0.90;;;;;;;6.92;63.85;99497.27;117338;1183;21857;-60
2021/12/20 08:59:03;;;;;;;2.00;0.70;;;;;;;6.95;63.99;99494.45;117274;1184;22666;-60
2021/12/20 09:01:31;;;;;;;2.00;0.80;;;;;;;6.96;63.88;99493.22;117342;1184;21897;-59
2021/12/20 09:04:03;;;;;;;3.10;1.00;;;;;;;6.99;63.89;99488.11;117309;1186;24216;-60
2021/12/20 09:06:37;;;;;;;5.60;1.90;;;;;;;7.05;64.13;99482.48;117154;1188;21879;-60
2021/12/20 09:09:23;;;;;;;5.30;0.90;;;;;;;7.13;64.29;99481.33;117287;1176;22880;-59
2021/12/20 09:11:51;;;;;;;2.70;0.90;;;;;;;7.15;63.85;99477.98;117312;1182;21862;-60
2021/12/20 09:14:20;;;;;;;3.10;0.90;;;;;;;7.20;63.91;99476.18;117345;1186;23503;-60
2021/12/20 09:16:48;;;;;;;5.10;0.80;;;;;;;7.21;63.85;99472.50;117303;1184;21862;-60
2021/12/20 09:19:17;;;;;;;2.70;0.70;;;;;;;7.19;63.68;99476.20;117340;1186;21856;-59
2021/12/20 09:21:48;;;;;;;4.70;1.40;;;;;;;7.24;63.90;99477.18;117318;1186;23570;-59
2021/12/20 09:24:17;;;;;;;6.80;3.50;;;;;;;7.32;64.04;99471.65;117339;1186;22925;-60
2021/12/20 09:26:45;;;;;;;11.10;4.20;;;;;;;7.41;63.81;99471.02;117307;1186;21862;-59
2021/12/20 09:29:14;;;;;;;3.20;1.50;;;;;;;7.48;63.72;99472.48;117314;1186;22848;-59
2021/12/20 09:31:44;;;;;;;2.20;1.30;;;;;;;7.51;63.78;99476.63;117300;1186;21863;-60
2021/12/20 09:34:12;;;;;;;5.40;1.20;;;;;;;7.60;63.73;99471.10;117324;1183;22914;-60
2021/12/20 09:36:40;;;;;;;2.40;0.70;;;;;;;7.70;63.79;99467.27;117111;1187;22737;-61
2021/12/20 09:39:11;;;;;;;1.70;0.80;;;;;;;7.82;63.75;99468.14;117295;1182;23496;-60
2021/12/20 09:44:23;;;;;;;1.80;0.60;;;;;;;7.72;63.03;99474.59;117348;1182;21867;-60
2021/12/20 09:46:57;;;;;;;2.00;0.70;;;;;;;7.52;63.04;99469.98;117252;1185;23568;-60
2021/12/20 09:49:26;;;;;;;3.00;1.20;;;;;;;7.40;63.05;99468.75;117347;1185;23443;-60
2021/12/20 09:51:57;;;;;;;2.90;1.30;;;;;;;7.42;63.47;99467.85;117335;1183;21870;-60
2021/12/20 09:54:26;;;;;;;2.40;1.10;;;;;;;7.48;63.44;99471.27;117286;1186;21855;-59
2021/12/20 09:56:57;;;;;;;1.30;0.90;;;;;;;7.50;63.30;99471.06;117360;1185;21922;-61
2021/12/20 09:59:27;;;;;;;1.00;0.70;;;;;;;7.40;63.21;99465.27;117358;1186;21864;-60
2021/12/20 10:01:56;;;;;;;1.40;0.50;;;;;;;7.37;63.25;99471.24;117317;1186;21845;-60
2021/12/20 10:04:24;;;;;;;1.10;0.50;;;;;;;7.44;63.23;99468.35;117306;1186;22900;-60
2021/12/20 10:06:56;;;;;;;0.30;0.10;;;;;;;7.50;63.38;99466.52;117311;1185;21857;-60
2021/12/20 10:09:27;;;;;;;0.70;0.20;;;;;;;7.53;63.45;99467.88;117353;1184;23806;-59
2021/12/20 10:12:29;;;;;;;0.50;0.20;;;;;;;7.58;63.36;99471.98;117365;1181;21853;-59
2021/12/20 10:15:01;;;;;;;2.20;0.40;;;;;;;7.62;63.24;99466.35;116997;1186;21902;-59
2021/12/20 10:17:55;;;;;;;1.80;0.80;;;;;;;7.65;63.14;99462.83;116963;1186;22938;-60
2021/12/20 10:20:25;;;;;;;0.70;0.50;;;;;;;7.54;63.05;99469.95;117029;1186;21947;-60
2021/12/20 10:22:54;;;;;;;0.40;0.20;;;;;;;7.40;62.73;99471.20;117018;1186;23499;-60
2021/12/20 10:25:29;;;;;;;1.00;0.30;;;;;;;7.20;62.72;99467.98;117102;1188;22726;-60
2021/12/20 10:28:11;;;;;;;0.70;0.20;;;;;;;6.97;62.38;99466.70;117078;1188;23560;-60
2021/12/20 10:30:42;;;;;;;0.60;0.20;;;;;;;6.80;62.43;99463.23;116989;1188;22957;-60
2021/12/20 10:33:12;;;;;;;0.50;0.30;;;;;;;6.86;63.10;99468.56;117019;1188;22904;-59
2021/12/20 10:35:43;;;;;;;0.60;0.30;;;;;;;6.97;63.08;99465.83;117048;1188;21856;-60
2021/12/20 10:38:23;;;;;;;0.60;0.20;;;;;;;7.08;63.48;99458.70;117052;1188;21868;-60
2021/12/20 10:40:56;;;;;;;;;;;;;;;7.27;63.50;99452.71;117051;1187;23423;-59
2021/12/20 10:43:36;;;;;;;0.90;0.20;;;;;;;7.44;63.13;99454.04;117194;1187;22917;-59
2021/12/20 10:46:26;;;;;;;0.20;0.20;;;;;;;7.52;62.83;99462.64;117196;1186;21852;-59
2021/12/20 10:49:01;;;;;;;0.60;0.20;;;;;;;7.52;62.85;99459.31;117196;1185;24234;-60
2021/12/20 10:52:01;;;;;;;4.40;0.20;;;;;;;7.52;62.58;99460.73;117266;1186;22953;-61
2021/12/20 10:54:32;;;;;;;0.80;0.30;;;;;;;7.50;62.67;99464.62;117270;1186;21904;-60
2021/12/20 10:57:02;;;;;;;0.90;0.30;;;;;;;7.45;62.61;99466.77;117354;1183;21873;-60
2021/12/20 10:59:35;;;;;;;1.00;0.40;;;;;;;7.35;62.56;99463.41;117323;1185;21856;-60
2021/12/20 11:04:51;;;;;;;1.30;0.30;;;;;;;7.15;62.41;99473.27;117377;1186;21857;-58
2021/12/20 11:09:55;;;;;;;1.50;0.40;;;;;;;7.01;62.33;99475.72;117388;1186;21900;-60
2021/12/20 11:12:25;;;;;;;1.00;0.70;;;;;;;6.95;62.27;99479.10;117297;1185;23552;-59
2021/12/20 11:14:56;;;;;;;5.80;3.00;;;;;;;6.90;62.25;99478.29;117295;1186;21973;-59
2021/12/20 11:17:43;;;;;;;3.20;1.40;;;;;;;7.05;61.96;99478.26;117229;1185;21867;-59
2021/12/20 11:20:19;;;;;;;11.20;6.20;;;;;;;7.22;61.50;99476.48;117319;1186;23542;-58
2021/12/20 11:22:47;;;;;;;3.10;1.10;;;;;;;6.85;61.99;99481.13;117278;1185;22856;-59
2021/12/20 11:25:16;;;;;;;3.90;2.00;;;;;;;6.76;62.35;99485.06;117316;1185;21854;-59
2021/12/20 11:27:51;;;;;;;1.50;0.80;;;;;;;6.71;62.41;99477.45;117348;1186;21894;-59
2021/12/20 11:30:21;;;;;;;2.20;0.70;;;;;;;6.69;61.93;99483.23;117349;1186;22904;-58
2021/12/20 11:32:49;;;;;;;;;;;;;;;6.60;62.06;99489.08;117316;1185;24137;-59
2021/12/20 11:35:20;;;;;;;0.90;0.60;;;;;;;6.56;62.27;99487.73;117390;1183;23542;-59
2021/12/20 11:37:49;;;;;;;1.50;0.50;;;;;;;6.52;62.16;99491.08;117368;1185;24764;-58
2021/12/20 11:40:19;;;;;;;2.60;0.70;;;;;;;6.49;62.37;99495.98;117442;1185;22000;-60
2021/12/20 11:42:49;;;;;;;2.20;0.40;;;;;;;6.39;62.23;99497.64;117318;1185;21861;-59
2021/12/20 11:45:19;;;;;;;3.30;1.00;;;;;;;6.32;62.13;99498.75;117159;1182;21859;-59
2021/12/20 11:48:11;;;;;;;2.30;0.90;;;;;;;6.29;62.20;99499.14;117315;1186;21883;-58
2021/12/20 11:50:41;;;;;;;1.70;0.60;;;;;;;6.25;62.44;99505.95;117325;1181;21982;-59
2021/12/20 11:53:15;;;;;;;2.50;0.70;;;;;;;6.31;62.51;99506.43;117310;1186;21871;-58
2021/12/20 11:55:51;;;;;;;1.10;0.40;;;;;;;6.43;62.58;99511.56;117336;1186;22904;-59
2021/12/20 11:58:40;;;;;;;0.70;0.20;;;;;;;6.62;62.52;99510.15;117160;1176;23445;-59
2021/12/20 12:01:16;;;;;;;0.50;0.20;;;;;;;6.77;62.69;99514.35;116962;1189;23643;-59
2021/12/20 12:03:55;;;;;;;0.70;0.20;;;;;;;6.98;63.22;99514.82;117347;1184;23479;-59
2021/12/20 12:06:28;;;;;;;1.30;0.30;;;;;;;7.13;62.91;99513.77;117339;1186;21864;-58
2021/12/20 12:08:58;;;;;;;0.50;0.20;;;;;;;7.15;62.94;99510.61;117303;1186;23439;-57
2021/12/20 12:11:46;;;;;;;0.80;0.30;;;;;;;7.14;62.80;99513.58;117292;1182;23444;-60
2021/12/20 12:14:21;;;;;;;0.60;0.30;;;;;;;7.08;62.41;99514.53;117243;1186;23488;-59
2021/12/20 12:16:55;;;;;;;0.90;0.30;;;;;;;6.97;62.51;99520.59;117299;1183;21848;-58